createdAt,value
2022-09-11T00:01:01.794Z,101264.22
2022-09-11T00:02:33.647Z,101273.81
2022-09-11T00:04:06.254Z,101267.56
2022-09-11T00:05:39.292Z,101267.75
2022-09-11T00:07:11.043Z,101267.06
2022-09-11T00:08:42.633Z,101265.50
2022-09-11T00:10:14.186Z,101264.81
2022-09-11T00:11:45.642Z,101271.84
2022-09-11T00:13:21.086Z,101273.72
2022-09-11T00:14:52.518Z,101270.47
2022-09-11T00:16:26.565Z,101275.97
2022-09-11T00:17:58.016Z,101285.03
2022-09-11T00:19:29.494Z,101279.00
2022-09-11T00:21:01.172Z,101282.88
2022-09-11T00:22:32.653Z,101285.69
2022-09-11T00:24:04.560Z,101287.56
2022-09-11T00:25:36.824Z,101281.47
2022-09-11T00:27:08.324Z,101282.63
2022-09-11T00:28:41.169Z,101287.81
2022-09-11T00:30:14.187Z,101289.44
2022-09-11T00:31:45.691Z,101291.88
2022-09-11T00:33:17.204Z,101288.28
2022-09-11T00:34:49.769Z,101294.28
2022-09-11T00:36:22.006Z,101288.78
2022-09-11T00:37:53.444Z,101294.78
2022-09-11T00:39:24.880Z,101295.56
2022-09-11T00:40:58.274Z,101299.88
2022-09-11T00:42:30.329Z,101293.63
2022-09-11T00:44:04.770Z,101291.19
2022-09-11T00:45:36.194Z,101298.47
2022-09-11T00:47:11.385Z,101290.59
2022-09-11T00:48:49.503Z,101288.97
2022-09-11T00:50:22.499Z,101290.69
2022-09-11T00:51:55.731Z,101296.88
2022-09-11T00:53:30.280Z,101296.94
2022-09-11T00:55:04.471Z,101296.25
2022-09-11T00:56:37.363Z,101299.06
2022-09-11T00:58:12.865Z,101303.88
2022-09-11T00:59:47.441Z,101308.59
2022-09-11T01:01:18.892Z,101302.75
2022-09-11T01:02:53.433Z,101311.34
2022-09-11T01:04:25.272Z,101314.34
2022-09-11T01:05:56.982Z,101310.03
2022-09-11T01:07:29.128Z,101308.19
2022-09-11T01:09:00.654Z,101313.06
2022-09-11T01:10:37.173Z,101314.56
2022-09-11T01:12:10.632Z,101317.13
2022-09-11T01:13:47.367Z,101311.19
2022-09-11T01:15:22.884Z,101314.16
2022-09-11T01:16:56.251Z,101313.72
2022-09-11T01:18:30.788Z,101315.66
2022-09-11T01:20:21.105Z,101313.25
2022-09-11T01:22:05.308Z,101318.72
2022-09-11T01:23:48.263Z,101325.91
2022-09-11T01:25:25.786Z,101336.44
2022-09-11T01:27:15.119Z,101328.41
2022-09-11T01:28:50.081Z,101332.59
2022-09-11T01:30:22.877Z,101329.88
2022-09-11T01:31:57.291Z,101342.75
2022-09-11T01:33:30.940Z,101335.59
2022-09-11T01:35:05.300Z,101348.69
2022-09-11T01:36:40.900Z,101340.63
2022-09-11T01:38:15.881Z,101349.53
2022-09-11T01:39:51.587Z,101344.00
2022-09-11T01:41:26.854Z,101337.03
2022-09-11T01:43:06.082Z,101348.69
2022-09-11T01:44:41.793Z,101349.66
2022-09-11T01:46:18.294Z,101341.56
2022-09-11T01:47:53.250Z,101354.97
2022-09-11T01:49:27.167Z,101349.53
2022-09-11T01:51:00.933Z,101345.34
2022-09-11T01:52:41.809Z,101353.84
2022-09-11T01:54:16.961Z,101336.38
2022-09-11T01:55:50.801Z,101343.53
2022-09-11T01:57:26.411Z,101341.75
2022-09-11T01:59:01.330Z,101354.16
2022-09-11T02:00:38.303Z,101347.84
2022-09-11T02:02:11.931Z,101349.00
2022-09-11T02:03:45.936Z,101345.56
2022-09-11T02:05:20.500Z,101358.47
2022-09-11T02:06:59.160Z,101353.38
2022-09-11T02:08:36.301Z,101359.69
2022-09-11T02:10:09.419Z,101348.94
2022-09-11T02:11:42.215Z,101358.69
2022-09-11T02:13:15.058Z,101361.63
2022-09-11T02:14:48.023Z,101366.41
2022-09-11T02:16:25.961Z,101351.50
2022-09-11T02:18:01.784Z,101358.75
2022-09-11T02:19:34.087Z,101365.84
2022-09-11T02:21:05.799Z,101366.78
2022-09-11T02:22:37.372Z,101365.84
2022-09-11T02:24:09.493Z,101361.25
2022-09-11T02:25:41.066Z,101367.28
2022-09-11T02:27:17.214Z,101367.34
2022-09-11T02:28:48.690Z,101366.25
2022-09-11T02:30:20.745Z,101362.69
2022-09-11T02:31:54.345Z,101369.66
2022-09-11T02:33:30.033Z,101368.91
2022-09-11T02:35:02.259Z,101371.56
2022-09-11T02:36:38.380Z,101356.41
2022-09-11T02:38:13.328Z,101365.41
2022-09-11T02:40:00.212Z,101378.88
2022-09-11T02:41:37.508Z,101373.97
2022-09-11T02:43:20.665Z,101369.38
2022-09-11T02:44:56.223Z,101371.31
2022-09-11T02:46:40.345Z,101370.47
2022-09-11T02:48:24.800Z,101375.69
2022-09-11T02:49:59.657Z,101372.09
2022-09-11T02:51:34.760Z,101375.63
2022-09-11T02:53:10.655Z,101373.75
2022-09-11T02:54:49.725Z,101370.88
2022-09-11T02:56:24.831Z,101376.97
2022-09-11T02:57:58.704Z,101375.06
2022-09-11T02:59:32.141Z,101374.78
2022-09-11T03:01:04.650Z,101377.22
2022-09-11T03:02:40.808Z,101377.81
2022-09-11T03:04:14.932Z,101374.63
2022-09-11T03:05:47.556Z,101381.16
2022-09-11T03:07:19.028Z,101378.84
2022-09-11T03:08:51.384Z,101378.06
2022-09-11T03:10:22.918Z,101378.91
2022-09-11T03:11:55.665Z,101378.91
2022-09-11T03:13:27.359Z,101380.13
2022-09-11T03:14:58.833Z,101386.31
2022-09-11T03:16:30.300Z,101387.41
2022-09-11T03:18:01.787Z,101385.31
2022-09-11T03:19:34.611Z,101382.56
2022-09-11T03:21:06.158Z,101380.56
2022-09-11T03:22:37.662Z,101388.66
2022-09-11T03:24:09.580Z,101384.28
2022-09-11T03:25:41.880Z,101392.13
2022-09-11T03:27:13.592Z,101393.66
2022-09-11T03:28:46.331Z,101398.75
2022-09-11T03:30:19.969Z,101396.81
2022-09-11T03:31:53.475Z,101398.75
2022-09-11T03:33:25.597Z,101395.09
2022-09-11T03:34:58.800Z,101395.09
2022-09-11T03:36:30.257Z,101398.03
2022-09-11T03:38:01.700Z,101405.31
2022-09-11T03:39:33.214Z,101401.94
2022-09-11T03:41:05.884Z,101409.84
2022-09-11T03:42:37.404Z,101407.97
2022-09-11T03:44:08.895Z,101395.16
2022-09-11T03:45:40.382Z,101395.31
2022-09-11T03:47:13.648Z,101406.00
2022-09-11T03:48:47.995Z,101406.25
2022-09-11T03:50:20.827Z,101402.09
2022-09-11T03:51:52.668Z,101404.03
2022-09-11T03:53:25.609Z,101403.25
2022-09-11T03:54:57.342Z,101410.13
2022-09-11T03:56:29.416Z,101408.13
2022-09-11T03:58:00.863Z,101401.63
2022-09-11T03:59:32.460Z,101399.59
2022-09-11T04:01:07.992Z,101410.06
2022-09-11T04:02:39.480Z,101407.34
2022-09-11T04:04:10.942Z,101406.50
2022-09-11T04:05:56.908Z,101398.31
2022-09-11T04:07:30.875Z,101407.72
2022-09-11T04:09:02.817Z,101404.13
2022-09-11T04:10:34.708Z,101410.06
2022-09-11T04:12:07.195Z,101412.81
2022-09-11T04:13:39.815Z,101411.16
2022-09-11T04:15:13.716Z,101412.34
2022-09-11T04:16:46.023Z,101410.63
2022-09-11T04:18:17.721Z,101417.72
2022-09-11T04:19:49.411Z,101414.28
2022-09-11T04:21:22.297Z,101416.38
2022-09-11T04:22:56.480Z,101413.25
2022-09-11T04:24:27.967Z,101410.16
2022-09-11T04:26:01.468Z,101411.81
2022-09-11T04:27:33.288Z,101417.13
2022-09-11T04:29:04.907Z,101423.13
2022-09-11T04:30:38.602Z,101411.09
2022-09-11T04:32:11.741Z,101411.69
2022-09-11T04:33:44.444Z,101415.78
2022-09-11T04:35:16.399Z,101419.50
2022-09-11T04:36:56.844Z,101417.78
2022-09-11T04:38:29.699Z,101416.00
2022-09-11T04:40:01.475Z,101426.75
2022-09-11T04:41:35.203Z,101420.50
2022-09-11T04:43:07.995Z,101414.91
2022-09-11T04:44:39.626Z,101420.44
2022-09-11T04:46:12.093Z,101421.00
2022-09-11T04:47:44.029Z,101420.50
2022-09-11T04:49:17.822Z,101421.34
2022-09-11T04:50:57.866Z,101429.09
2022-09-11T04:52:31.009Z,101428.84
2022-09-11T04:54:03.205Z,101431.56
2022-09-11T04:55:38.783Z,101426.25
2022-09-11T04:57:10.251Z,101431.94
2022-09-11T04:58:43.331Z,101428.16
2022-09-11T05:00:15.388Z,101433.97
2022-09-11T05:01:46.924Z,101427.41
2022-09-11T05:03:20.865Z,101429.69
2022-09-11T05:04:52.282Z,101438.44
2022-09-11T05:06:23.845Z,101429.47
2022-09-11T05:07:56.628Z,101429.34
2022-09-11T05:09:28.364Z,101435.72
2022-09-11T05:11:01.286Z,101436.88
2022-09-11T05:12:32.777Z,101443.66
2022-09-11T05:14:04.278Z,101446.59
2022-09-11T05:15:38.034Z,101447.78
2022-09-11T05:17:09.496Z,101447.34
2022-09-11T05:18:50.250Z,101449.69
2022-09-11T05:20:21.674Z,101456.56
2022-09-11T05:21:53.150Z,101452.41
2022-09-11T05:23:25.948Z,101458.97
2022-09-11T05:24:58.291Z,101464.72
2022-09-11T05:26:31.571Z,101465.19
2022-09-11T05:28:05.541Z,101460.19
2022-09-11T05:29:38.551Z,101464.13
2022-09-11T05:31:16.687Z,101464.66
2022-09-11T05:32:54.744Z,101462.66
2022-09-11T05:34:28.663Z,101468.56
2022-09-11T05:36:03.382Z,101466.50
2022-09-11T05:37:34.854Z,101476.06
2022-09-11T05:39:10.567Z,101479.50
2022-09-11T05:40:44.617Z,101477.63
2022-09-11T05:42:16.253Z,101477.78
2022-09-11T05:43:52.587Z,101484.16
2022-09-11T05:45:24.861Z,101480.66
2022-09-11T05:46:56.949Z,101492.59
2022-09-11T05:48:29.118Z,101487.19
2022-09-11T05:50:02.838Z,101490.25
2022-09-11T05:51:37.561Z,101492.25
2022-09-11T05:53:10.036Z,101498.47
2022-09-11T05:54:42.824Z,101498.69
2022-09-11T05:56:16.256Z,101501.50
2022-09-11T05:57:47.796Z,101503.16
2022-09-11T05:59:20.531Z,101501.28
2022-09-11T06:01:02.257Z,101498.41
2022-09-11T06:02:34.708Z,101502.47
2022-09-11T06:04:09.076Z,101499.97
2022-09-11T06:05:40.593Z,101504.06
2022-09-11T06:07:12.125Z,101502.03
2022-09-11T06:08:47.275Z,101504.69
2022-09-11T06:10:20.067Z,101509.19
2022-09-11T06:11:51.533Z,101511.72
2022-09-11T06:13:23.075Z,101503.75
2022-09-11T06:14:56.294Z,101506.59
2022-09-11T06:16:29.163Z,101510.06
2022-09-11T06:18:07.385Z,101503.59
2022-09-11T06:19:39.065Z,101505.09
2022-09-11T06:21:11.710Z,101501.75
2022-09-11T06:22:50.972Z,101512.56
2022-09-11T06:24:22.493Z,101515.63
2022-09-11T06:26:02.367Z,101514.34
2022-09-11T06:27:34.307Z,101518.06
2022-09-11T06:29:05.903Z,101521.94
2022-09-11T06:30:40.888Z,101523.97
2022-09-11T06:32:14.274Z,101523.09
2022-09-11T06:33:46.678Z,101511.19
2022-09-11T06:35:18.292Z,101525.75
2022-09-11T06:36:52.255Z,101520.06
2022-09-11T06:38:24.652Z,101518.78
2022-09-11T06:39:56.890Z,101514.03
2022-09-11T06:41:32.781Z,101520.75
2022-09-11T06:43:09.422Z,101518.72
2022-09-11T06:44:42.018Z,101522.47
2022-09-11T06:46:17.091Z,101525.47
2022-09-11T06:47:48.532Z,101527.16
2022-09-11T06:49:20.625Z,101534.91
2022-09-11T06:51:11.878Z,101529.28
2022-09-11T06:52:43.526Z,101528.09
2022-09-11T06:54:29.796Z,101530.59
2022-09-11T06:56:03.113Z,101533.97
2022-09-11T06:57:41.724Z,101534.66
2022-09-11T06:59:17.888Z,101538.09
2022-09-11T07:00:49.390Z,101539.91
2022-09-11T07:02:20.928Z,101542.38
2022-09-11T07:03:53.544Z,101537.91
2022-09-11T07:05:25.819Z,101536.03
2022-09-11T07:06:57.905Z,101543.09
2022-09-11T07:08:30.121Z,101543.78
2022-09-11T07:10:05.025Z,101539.19
2022-09-11T07:11:38.596Z,101536.53
2022-09-11T07:13:11.401Z,101541.06
2022-09-11T07:14:43.811Z,101544.66
2022-09-11T07:16:20.340Z,101545.25
2022-09-11T07:17:58.453Z,101543.22
2022-09-11T07:19:29.897Z,101545.03
2022-09-11T07:21:06.453Z,101540.41
2022-09-11T07:22:40.461Z,101547.53
2022-09-11T07:24:12.021Z,101545.03
2022-09-11T07:25:46.001Z,101546.38
2022-09-11T07:27:19.215Z,101546.38
2022-09-11T07:28:53.099Z,101550.34
2022-09-11T07:30:25.000Z,101550.88
2022-09-11T07:31:59.833Z,101551.91
2022-09-11T07:33:32.251Z,101548.69
2022-09-11T07:35:08.486Z,101559.69
2022-09-11T07:36:39.960Z,101551.22
2022-09-11T07:38:13.770Z,101556.06
2022-09-11T07:39:46.606Z,101558.88
2022-09-11T07:41:24.250Z,101557.38
2022-09-11T07:42:59.294Z,101561.09
2022-09-11T07:44:33.337Z,101557.06
2022-09-11T07:46:08.023Z,101555.81
2022-09-11T07:47:39.696Z,101558.22
2022-09-11T07:49:11.507Z,101558.03
2022-09-11T07:50:54.739Z,101563.13
2022-09-11T07:52:26.662Z,101561.31
2022-09-11T07:54:04.573Z,101569.22
2022-09-11T07:55:38.017Z,101567.50
2022-09-11T07:57:09.536Z,101573.25
2022-09-11T07:58:42.279Z,101567.16
2022-09-11T08:00:16.222Z,101569.72
2022-09-11T08:01:55.592Z,101563.47
2022-09-11T08:03:27.970Z,101575.47
2022-09-11T08:05:00.166Z,101574.81
2022-09-11T08:06:33.333Z,101578.94
2022-09-11T08:08:06.849Z,101582.81
2022-09-11T08:09:39.920Z,101580.44
2022-09-11T08:11:13.578Z,101584.25
2022-09-11T08:12:46.111Z,101587.38
2022-09-11T08:14:17.818Z,101582.66
2022-09-11T08:15:53.225Z,101579.81
2022-09-11T08:17:25.902Z,101590.28
2022-09-11T08:18:58.601Z,101594.44
2022-09-11T08:20:30.740Z,101597.13
2022-09-11T08:22:02.237Z,101600.84
2022-09-11T08:23:42.576Z,101595.56
2022-09-11T08:25:15.515Z,101592.09
2022-09-11T08:26:49.266Z,101599.41
2022-09-11T08:28:21.562Z,101598.69
2022-09-11T08:29:54.116Z,101594.47
2022-09-11T08:31:28.069Z,101597.50
2022-09-11T08:33:02.318Z,101597.19
2022-09-11T08:34:33.995Z,101594.94
2022-09-11T08:36:06.980Z,101601.63
2022-09-11T08:37:39.320Z,101599.25
2022-09-11T08:39:11.082Z,101602.09
2022-09-11T08:40:48.669Z,101595.75
2022-09-11T08:42:20.667Z,101602.97
2022-09-11T08:43:53.777Z,101608.16
2022-09-11T08:45:28.587Z,101608.00
2022-09-11T08:47:06.138Z,101618.25
2022-09-11T08:48:43.710Z,101617.00
2022-09-11T08:50:19.091Z,101612.06
2022-09-11T08:51:51.472Z,101618.78
2022-09-11T08:53:23.309Z,101617.72
2022-09-11T08:54:56.568Z,101626.03
2022-09-11T08:56:29.771Z,101623.13
2022-09-11T08:58:06.296Z,101623.53
2022-09-11T08:59:58.334Z,101630.13
2022-09-11T09:01:34.009Z,101622.34
2022-09-11T09:03:16.105Z,101625.28
2022-09-11T09:05:00.314Z,101631.56
2022-09-11T09:06:39.970Z,101627.78
2022-09-11T09:08:21.994Z,101623.38
2022-09-11T09:09:59.429Z,101627.66
2022-09-11T09:11:36.094Z,101623.34
2022-09-11T09:13:20.808Z,101626.19
2022-09-11T09:15:03.456Z,101626.94
2022-09-11T09:16:45.276Z,101630.28
2022-09-11T09:18:24.785Z,101634.50
2022-09-11T09:20:00.455Z,101633.66
2022-09-11T09:21:34.730Z,101641.78
2022-09-11T09:23:11.844Z,101632.31
2022-09-11T09:24:48.465Z,101634.50
2022-09-11T09:26:20.842Z,101637.63
2022-09-11T09:27:56.365Z,101644.53
2022-09-11T09:29:36.828Z,101643.75
2022-09-11T09:31:11.038Z,101640.25
2022-09-11T09:32:45.542Z,101642.31
2022-09-11T09:34:19.834Z,101641.78
2022-09-11T09:35:54.288Z,101648.16
2022-09-11T09:37:28.610Z,101645.91
2022-09-11T09:39:01.432Z,101642.72
2022-09-11T09:40:35.397Z,101650.63
2022-09-11T09:42:15.183Z,101650.44
2022-09-11T09:43:54.098Z,101644.16
2022-09-11T09:45:35.151Z,101652.72
2022-09-11T09:47:10.277Z,101656.94
2022-09-11T09:48:41.799Z,101649.88
2022-09-11T09:50:19.618Z,101654.72
2022-09-11T09:51:52.819Z,101652.72
2022-09-11T09:53:29.224Z,101653.16
2022-09-11T09:55:01.651Z,101659.34
2022-09-11T09:56:34.747Z,101655.97
2022-09-11T09:58:07.638Z,101653.03
2022-09-11T09:59:40.850Z,101658.19
2022-09-11T10:01:27.182Z,101657.56
2022-09-11T10:02:58.655Z,101652.19
2022-09-11T10:04:30.371Z,101651.31
2022-09-11T10:06:05.067Z,101648.94
2022-09-11T10:07:45.467Z,101650.22
2022-09-11T10:09:24.253Z,101656.03
2022-09-11T10:10:57.292Z,101649.47
2022-09-11T10:12:31.379Z,101657.22
2022-09-11T10:14:02.858Z,101651.09
2022-09-11T10:15:38.596Z,101656.03
2022-09-11T10:17:19.347Z,101653.47
2022-09-11T10:18:51.168Z,101651.56
2022-09-11T10:20:26.794Z,101653.75
2022-09-11T10:22:20.647Z,101656.44
2022-09-11T10:23:53.286Z,101650.91
2022-09-11T10:25:29.906Z,101653.66
2022-09-11T10:27:02.944Z,101659.78
2022-09-11T10:28:34.454Z,101660.03
2022-09-11T10:30:06.736Z,101655.84
2022-09-11T10:31:39.563Z,101649.31
2022-09-11T10:33:16.504Z,101653.59
2022-09-11T10:34:48.756Z,101660.69
2022-09-11T10:36:24.313Z,101661.91
2022-09-11T10:38:02.762Z,101663.44
2022-09-11T10:39:35.959Z,101662.19
2022-09-11T10:41:09.499Z,101658.09
2022-09-11T10:42:41.347Z,101661.47
2022-09-11T10:44:15.907Z,101654.56
2022-09-11T10:46:01.055Z,101661.63
2022-09-11T10:47:32.721Z,101657.25
2022-09-11T10:49:09.465Z,101660.09
2022-09-11T10:50:41.221Z,101653.00
2022-09-11T10:52:19.372Z,101657.47
2022-09-11T10:53:58.478Z,101656.22
2022-09-11T10:55:32.178Z,101651.97
2022-09-11T10:57:09.025Z,101663.91
2022-09-11T10:58:43.039Z,101658.97
2022-09-11T11:00:18.152Z,101657.63
2022-09-11T11:01:49.688Z,101651.69
2022-09-11T11:03:24.122Z,101659.53
2022-09-11T11:04:56.450Z,101646.13
2022-09-11T11:06:37.024Z,101653.31
2022-09-11T11:08:21.435Z,101645.38
2022-09-11T11:10:02.405Z,101650.63
2022-09-11T11:11:41.773Z,101636.31
2022-09-11T11:13:24.323Z,101648.47
2022-09-11T11:15:05.362Z,101649.13
2022-09-11T11:16:45.584Z,101641.88
2022-09-11T11:18:21.318Z,101640.16
2022-09-11T11:20:00.639Z,101639.19
2022-09-11T11:21:39.276Z,101634.78
2022-09-11T11:23:26.294Z,101640.63
2022-09-11T11:25:07.140Z,101637.53
2022-09-11T11:26:49.024Z,101641.63
2022-09-11T11:28:29.688Z,101645.66
2022-09-11T11:30:08.347Z,101648.72
2022-09-11T11:31:49.078Z,101634.78
2022-09-11T11:33:38.119Z,101637.72
2022-09-11T11:35:19.368Z,101634.41
2022-09-11T11:36:55.247Z,101648.75
2022-09-11T11:38:28.884Z,101642.78
2022-09-11T11:40:03.035Z,101633.25
2022-09-11T11:41:38.304Z,101636.88
2022-09-11T11:43:11.289Z,101636.25
2022-09-11T11:44:45.438Z,101636.63
2022-09-11T11:46:20.047Z,101633.63
2022-09-11T11:47:53.852Z,101640.88
2022-09-11T11:49:31.373Z,101632.53
2022-09-11T11:51:06.220Z,101631.97
2022-09-11T11:52:42.257Z,101639.91
2022-09-11T11:54:17.444Z,101633.78
2022-09-11T11:55:54.441Z,101632.09
2022-09-11T11:57:31.119Z,101633.94
2022-09-11T11:59:04.002Z,101631.56
2022-09-11T12:00:39.160Z,101629.53
2022-09-11T12:02:15.739Z,101640.63
2022-09-11T12:03:50.772Z,101633.03
2022-09-11T12:05:24.280Z,101629.06
2022-09-11T12:06:55.827Z,101631.75
2022-09-11T12:08:27.538Z,101635.47
2022-09-11T12:10:00.218Z,101638.50
2022-09-11T12:11:33.473Z,101638.41
2022-09-11T12:13:07.299Z,101637.44
2022-09-11T12:14:48.221Z,101630.38
2022-09-11T12:16:21.080Z,101638.00
2022-09-11T12:18:00.353Z,101637.06
2022-09-11T12:19:31.868Z,101630.84
2022-09-11T12:21:21.923Z,101633.88
2022-09-11T12:22:53.415Z,101640.16
2022-09-11T12:24:46.393Z,101634.41
2022-09-11T12:26:18.897Z,101637.22
2022-09-11T12:27:53.374Z,101636.06
2022-09-11T12:29:51.773Z,101627.41
2022-09-11T12:31:23.209Z,101625.03
2022-09-11T12:32:55.589Z,101623.63
2022-09-11T12:34:47.604Z,101624.63
2022-09-11T12:36:24.375Z,101623.50
2022-09-11T12:38:01.739Z,101623.75
2022-09-11T12:39:34.915Z,101625.66
2022-09-11T12:41:13.029Z,101627.97
2022-09-11T12:42:57.664Z,101632.47
2022-09-11T12:44:30.687Z,101623.72
2022-09-11T12:46:02.879Z,101625.09
2022-09-11T12:47:35.872Z,101622.09
2022-09-11T12:49:23.922Z,101614.13
2022-09-11T12:50:56.341Z,101612.91
2022-09-11T12:52:31.676Z,101610.13
2022-09-11T12:54:04.633Z,101612.59
2022-09-11T12:55:39.666Z,101615.50
2022-09-11T12:57:15.982Z,101615.38
2022-09-11T12:58:54.388Z,101607.72
2022-09-11T13:00:34.050Z,101603.56
2022-09-11T13:02:18.752Z,101596.00
2022-09-11T13:03:57.427Z,101594.22
2022-09-11T13:05:34.354Z,101597.75
2022-09-11T13:07:07.459Z,101588.56
2022-09-11T13:08:45.568Z,101586.88
2022-09-11T13:10:25.029Z,101590.47
2022-09-11T13:11:57.302Z,101592.31
2022-09-11T13:13:39.837Z,101589.28
2022-09-11T13:15:30.419Z,101590.38
2022-09-11T13:17:02.766Z,101581.97
2022-09-11T13:18:34.931Z,101584.16
2022-09-11T13:20:19.743Z,101583.81
2022-09-11T13:21:56.598Z,101578.91
2022-09-11T13:23:28.344Z,101589.19
2022-09-11T13:25:07.510Z,101580.50
2022-09-11T13:26:40.705Z,101584.75
2022-09-11T13:28:17.364Z,101578.38
2022-09-11T13:29:54.681Z,101576.66
2022-09-11T13:31:32.253Z,101567.72
2022-09-11T13:33:05.607Z,101565.59
2022-09-11T13:34:37.677Z,101565.75
2022-09-11T13:36:12.883Z,101569.41
2022-09-11T13:37:47.512Z,101567.47
2022-09-11T13:39:19.575Z,101557.75
2022-09-11T13:40:54.497Z,101559.88
2022-09-11T13:42:26.059Z,101560.94
2022-09-11T13:43:58.734Z,101559.50
2022-09-11T13:45:30.297Z,101563.94
2022-09-11T13:47:06.306Z,101560.44
2022-09-11T13:48:38.998Z,101563.66
2022-09-11T13:50:12.760Z,101556.28
2022-09-11T13:51:45.249Z,101553.03
2022-09-11T13:53:19.077Z,101553.59
2022-09-11T13:54:51.559Z,101556.28
2022-09-11T13:56:37.032Z,101546.97
2022-09-11T13:58:21.458Z,101545.25
2022-09-11T13:59:56.909Z,101539.84
2022-09-11T14:01:28.433Z,101543.16
2022-09-11T14:03:01.477Z,101541.91
2022-09-11T14:04:38.470Z,101543.78
2022-09-11T14:06:10.957Z,101542.13
2022-09-11T14:07:47.221Z,101534.63
2022-09-11T14:09:19.680Z,101534.31
2022-09-11T14:10:53.448Z,101533.91
2022-09-11T14:12:25.163Z,101536.72
2022-09-11T14:13:58.654Z,101533.19
2022-09-11T14:15:34.797Z,101532.75
2022-09-11T14:17:10.641Z,101528.22
2022-09-11T14:18:46.107Z,101529.19
2022-09-11T14:20:23.020Z,101524.88
2022-09-11T14:21:54.493Z,101523.06
2022-09-11T14:23:27.426Z,101526.06
2022-09-11T14:25:03.973Z,101529.03
2022-09-11T14:26:42.120Z,101527.16
2022-09-11T14:28:28.664Z,101522.16
2022-09-11T14:30:00.500Z,101521.91
2022-09-11T14:31:34.062Z,101517.09
2022-09-11T14:33:15.906Z,101512.41
2022-09-11T14:34:48.754Z,101515.09
2022-09-11T14:36:20.258Z,101513.44
2022-09-11T14:37:51.724Z,101507.75
2022-09-11T14:39:35.922Z,101499.88
2022-09-11T14:41:07.607Z,101507.69
2022-09-11T14:42:40.345Z,101508.34
2022-09-11T14:44:13.094Z,101503.88
2022-09-11T14:45:44.572Z,101503.97
2022-09-11T14:47:19.536Z,101499.09
2022-09-11T14:48:51.548Z,101500.00
2022-09-11T14:50:24.564Z,101501.63
2022-09-11T14:51:58.418Z,101501.63
2022-09-11T14:53:31.439Z,101502.59
2022-09-11T14:55:02.962Z,101499.25
2022-09-11T14:56:34.432Z,101497.25
2022-09-11T14:58:05.930Z,101498.41
2022-09-11T14:59:37.409Z,101489.81
2022-09-11T15:01:09.903Z,101496.78
2022-09-11T15:02:42.137Z,101500.75
2022-09-11T15:04:17.519Z,101492.25
2022-09-11T15:05:51.999Z,101496.84
2022-09-11T15:07:24.237Z,101496.22
2022-09-11T15:08:55.745Z,101495.19
2022-09-11T15:10:27.407Z,101499.59
2022-09-11T15:11:58.922Z,101495.16
2022-09-11T15:13:31.898Z,101498.34
2022-09-11T15:15:04.223Z,101492.38
2022-09-11T15:16:35.855Z,101482.25
2022-09-11T15:18:07.493Z,101485.25
2022-09-11T15:19:39.391Z,101488.16
2022-09-11T15:21:12.236Z,101488.72
2022-09-11T15:22:44.644Z,101481.53
2022-09-11T15:24:16.988Z,101480.41
2022-09-11T15:25:48.445Z,101478.31
2022-09-11T15:27:20.051Z,101477.34
2022-09-11T15:28:53.227Z,101468.81
2022-09-11T15:30:25.668Z,101469.38
2022-09-11T15:31:57.096Z,101477.91
2022-09-11T15:33:29.143Z,101467.94
2022-09-11T15:35:00.786Z,101467.09
2022-09-11T15:36:33.656Z,101472.59
2022-09-11T15:38:05.564Z,101468.00
2022-09-11T15:39:37.109Z,101475.16
2022-09-11T15:41:09.934Z,101465.19
2022-09-11T15:42:42.069Z,101472.34
2022-09-11T15:44:19.847Z,101463.84
2022-09-11T15:45:51.342Z,101466.53
2022-09-11T15:47:22.949Z,101469.69
2022-09-11T15:48:54.385Z,101462.47
2022-09-11T15:50:29.928Z,101460.75
2022-09-11T15:52:02.919Z,101461.34
2022-09-11T15:53:34.798Z,101470.41
2022-09-11T15:55:07.054Z,101460.25
2022-09-11T15:56:38.653Z,101456.56
2022-09-11T15:58:10.094Z,101457.13
2022-09-11T15:59:42.084Z,101455.16
2022-09-11T16:01:18.247Z,101457.13
2022-09-11T16:02:50.952Z,101459.56
2022-09-11T16:04:25.251Z,101458.00
2022-09-11T16:05:57.207Z,101456.16
2022-09-11T16:07:30.075Z,101456.78
2022-09-11T16:09:04.071Z,101457.31
2022-09-11T16:10:36.609Z,101455.84
2022-09-11T16:12:08.125Z,101459.16
2022-09-11T16:13:40.485Z,101457.63
2022-09-11T16:15:12.491Z,101454.19
2022-09-11T16:16:47.023Z,101454.66
2022-09-11T16:18:19.221Z,101457.09
2022-09-11T16:19:51.412Z,101454.66
2022-09-11T16:21:23.277Z,101445.41
2022-09-11T16:22:56.276Z,101451.03
2022-09-11T16:24:28.711Z,101451.28
2022-09-11T16:26:02.497Z,101451.41
2022-09-11T16:27:34.630Z,101454.50
2022-09-11T16:29:06.405Z,101449.50
2022-09-11T16:30:43.733Z,101455.25
2022-09-11T16:32:27.928Z,101442.09
2022-09-11T16:34:02.685Z,101446.72
2022-09-11T16:35:34.342Z,101441.88
2022-09-11T16:37:05.850Z,101448.97
2022-09-11T16:38:39.253Z,101444.47
2022-09-11T16:40:11.013Z,101441.66
2022-09-11T16:41:43.006Z,101453.00
2022-09-11T16:43:20.784Z,101448.22
2022-09-11T16:44:53.488Z,101455.06
2022-09-11T16:46:25.936Z,101454.34
2022-09-11T16:47:58.541Z,101451.66
2022-09-11T16:49:37.198Z,101444.47
2022-09-11T16:51:16.818Z,101451.53
2022-09-11T16:52:48.314Z,101444.47
2022-09-11T16:54:22.042Z,101443.72
2022-09-11T16:55:53.484Z,101445.06
2022-09-11T16:57:27.211Z,101441.06
2022-09-11T16:58:58.799Z,101442.03
2022-09-11T17:00:31.742Z,101440.91
2022-09-11T17:02:03.250Z,101432.88
2022-09-11T17:03:39.442Z,101437.84
2022-09-11T17:05:12.833Z,101437.81
2022-09-11T17:06:44.278Z,101438.19
2022-09-11T17:08:16.276Z,101432.09
2022-09-11T17:09:49.223Z,101430.88
2022-09-11T17:11:22.125Z,101436.94
2022-09-11T17:12:53.929Z,101425.59
2022-09-11T17:14:25.634Z,101432.00
2022-09-11T17:16:00.993Z,101429.94
2022-09-11T17:17:33.455Z,101427.59
2022-09-11T17:19:05.162Z,101441.00
2022-09-11T17:20:37.229Z,101429.41
2022-09-11T17:22:10.258Z,101434.91
2022-09-11T17:23:42.127Z,101430.47
2022-09-11T17:25:15.219Z,101443.50
2022-09-11T17:26:48.091Z,101437.97
2022-09-11T17:28:20.031Z,101433.69
2022-09-11T17:29:51.607Z,101431.38
2022-09-11T17:31:23.482Z,101437.47
2022-09-11T17:32:54.970Z,101425.75
2022-09-11T17:34:26.593Z,101438.44
2022-09-11T17:35:58.637Z,101430.63
2022-09-11T17:37:30.213Z,101435.47
2022-09-11T17:39:01.764Z,101437.41
2022-09-11T17:40:34.629Z,101438.47
2022-09-11T17:42:11.042Z,101437.03
2022-09-11T17:43:44.837Z,101435.53
2022-09-11T17:45:16.313Z,101430.28
2022-09-11T17:46:47.890Z,101427.81
2022-09-11T17:48:19.656Z,101434.25
2022-09-11T17:49:51.227Z,101427.44
2022-09-11T17:51:24.920Z,101430.22
2022-09-11T17:52:56.343Z,101430.00
2022-09-11T17:54:28.085Z,101427.94
2022-09-11T17:56:01.863Z,101432.22
2022-09-11T17:57:33.572Z,101429.66
2022-09-11T17:59:05.089Z,101431.47